createdAt,value
2022-11-28T00:00:17.244Z,6.52
2022-11-28T00:03:18.799Z,6.42
2022-11-28T00:06:20.808Z,6.18
2022-11-28T00:09:22.398Z,6.52
2022-11-28T00:12:24.139Z,6.76
2022-11-28T00:15:25.538Z,6.53
2022-11-28T00:18:28.045Z,6.58
2022-11-28T00:21:30.074Z,6.72
2022-11-28T00:24:31.538Z,6.61
2022-11-28T00:27:34.798Z,6.74
2022-11-28T00:30:37.790Z,6.52
2022-11-28T00:33:39.238Z,6.47
2022-11-28T00:36:43.682Z,6.52
2022-11-28T00:39:45.063Z,6.65
2022-11-28T00:42:46.581Z,6.73
2022-11-28T00:45:48.010Z,6.76
2022-11-28T00:48:49.968Z,6.83
2022-11-28T00:51:51.467Z,6.80
2022-11-28T00:54:52.944Z,6.90
2022-11-28T00:57:55.191Z,6.77
2022-11-28T01:00:56.601Z,6.81
2022-11-28T01:03:59.845Z,6.82
2022-11-28T01:07:02.308Z,6.76
2022-11-28T01:10:04.360Z,6.79
2022-11-28T01:13:05.885Z,6.23
2022-11-28T01:16:09.011Z,6.66
2022-11-28T01:19:10.755Z,6.70
2022-11-28T01:22:12.287Z,6.79
2022-11-28T01:25:13.695Z,6.84
2022-11-28T01:28:15.134Z,6.76
2022-11-28T01:31:19.256Z,6.78
2022-11-28T01:34:20.734Z,6.96
2022-11-28T01:37:22.148Z,7.02
2022-11-28T01:40:23.605Z,6.94
2022-11-28T01:43:25.431Z,6.91
2022-11-28T01:46:27.297Z,6.88
2022-11-28T01:49:34.481Z,6.93
2022-11-28T01:52:40.182Z,6.83
2022-11-28T01:56:11.407Z,6.86
2022-11-28T01:59:15.523Z,6.96
2022-11-28T02:02:26.818Z,6.96
2022-11-28T02:05:28.463Z,6.81
2022-11-28T02:08:34.128Z,7.01
2022-11-28T02:11:58.259Z,7.07
2022-11-28T02:15:11.704Z,7.10
2022-11-28T02:18:35.147Z,7.14
2022-11-28T02:22:07.384Z,7.11
2022-11-28T02:25:33.935Z,6.92
2022-11-28T02:29:07.658Z,6.90
2022-11-28T02:32:27.967Z,6.87
2022-11-28T02:35:34.848Z,6.74
2022-11-28T02:38:58.614Z,6.88
2022-11-28T02:42:13.580Z,6.85
2022-11-28T02:45:53.092Z,6.84
2022-11-28T02:49:11.611Z,6.87
2022-11-28T02:52:17.818Z,6.85
2022-11-28T02:55:20.175Z,6.77
2022-11-28T02:58:21.512Z,6.85
2022-11-28T03:01:29.326Z,6.74
2022-11-28T03:04:55.923Z,6.64
2022-11-28T03:08:09.678Z,6.64
2022-11-28T03:11:25.383Z,6.65
2022-11-28T03:14:38.770Z,6.71
2022-11-28T03:17:46.279Z,6.71
2022-11-28T03:20:55.205Z,6.77
2022-11-28T03:24:06.263Z,6.73
2022-11-28T03:27:16.571Z,6.78
2022-11-28T03:30:27.337Z,6.78
2022-11-28T03:33:34.238Z,6.69
2022-11-28T03:36:42.592Z,6.73
2022-11-28T03:39:48.954Z,6.81
2022-11-28T03:43:13.790Z,6.74
2022-11-28T03:46:18.150Z,6.68
2022-11-28T03:49:25.159Z,6.83
2022-11-28T03:52:35.593Z,6.84
2022-11-28T03:55:46.689Z,6.85
2022-11-28T03:59:04.434Z,6.87
2022-11-28T04:02:11.528Z,6.88
2022-11-28T04:05:21.075Z,6.86
2022-11-28T04:08:48.445Z,6.79
2022-11-28T04:11:56.457Z,6.82
2022-11-28T04:15:06.197Z,6.70
2022-11-28T04:18:21.846Z,6.61
2022-11-28T04:21:34.215Z,6.60
2022-11-28T04:24:45.487Z,6.53
2022-11-28T04:27:54.059Z,6.45
2022-11-28T04:31:00.052Z,6.34
2022-11-28T04:34:06.867Z,6.41
2022-11-28T04:37:10.126Z,6.24
2022-11-28T04:40:12.965Z,6.37
2022-11-28T04:43:21.003Z,6.36
2022-11-28T04:46:27.078Z,6.28
2022-11-28T04:49:30.459Z,6.29
2022-11-28T04:52:56.505Z,6.39
2022-11-28T04:56:05.103Z,6.28
2022-11-28T04:59:08.073Z,6.23
2022-11-28T05:02:12.104Z,6.29
2022-11-28T05:05:19.968Z,6.31
2022-11-28T05:08:21.387Z,5.90
2022-11-28T05:11:23.283Z,6.34
2022-11-28T05:14:24.711Z,6.35
2022-11-28T05:17:26.119Z,6.25
2022-11-28T05:20:27.664Z,6.31
2022-11-28T05:23:29.249Z,6.40
2022-11-28T05:26:32.533Z,6.29
2022-11-28T05:29:34.245Z,6.33
2022-11-28T05:32:36.480Z,6.37
2022-11-28T05:35:39.819Z,6.40
2022-11-28T05:38:42.221Z,6.37
2022-11-28T05:41:43.818Z,6.46
2022-11-28T05:44:45.426Z,6.52
2022-11-28T05:47:46.840Z,6.33
2022-11-28T05:50:50.659Z,6.26
2022-11-28T05:53:52.075Z,6.30
2022-11-28T05:56:53.487Z,6.19
2022-11-28T05:59:54.875Z,6.15
2022-11-28T06:03:01.200Z,6.04
2022-11-28T06:06:03.234Z,6.09
2022-11-28T06:09:05.994Z,6.12
2022-11-28T06:12:08.353Z,6.15
2022-11-28T06:15:09.979Z,6.17
2022-11-28T06:18:11.388Z,6.30
2022-11-28T06:21:14.595Z,6.29
2022-11-28T06:24:16.004Z,6.35
2022-11-28T06:27:17.392Z,6.29
2022-11-28T06:30:18.838Z,6.22
2022-11-28T06:33:20.417Z,6.16
2022-11-28T06:36:21.924Z,6.33
2022-11-28T06:39:23.355Z,6.23
2022-11-28T06:42:24.737Z,6.32
2022-11-28T06:45:26.218Z,6.13
2022-11-28T06:48:27.815Z,6.25
2022-11-28T06:51:29.306Z,6.27
2022-11-28T06:54:30.870Z,6.19
2022-11-28T06:57:32.791Z,6.26
2022-11-28T07:00:35.300Z,6.24
2022-11-28T07:03:37.652Z,6.31
2022-11-28T07:06:39.080Z,6.33
2022-11-28T07:09:40.607Z,6.39
2022-11-28T07:12:42.198Z,6.46
2022-11-28T07:15:50.839Z,6.38
2022-11-28T07:18:53.079Z,6.37
2022-11-28T07:21:54.689Z,6.56
2022-11-28T07:24:56.237Z,6.65
2022-11-28T07:27:57.669Z,6.54
2022-11-28T07:31:00.430Z,6.66
2022-11-28T07:34:03.628Z,6.77
2022-11-28T07:37:05.252Z,6.76
2022-11-28T07:40:07.283Z,6.80
2022-11-28T07:43:08.771Z,6.87
2022-11-28T07:46:13.549Z,6.85
2022-11-28T07:49:15.739Z,6.85
2022-11-28T07:52:17.176Z,6.78
2022-11-28T07:55:18.625Z,6.66
2022-11-28T07:58:22.076Z,6.70
2022-11-28T08:01:26.660Z,6.81
2022-11-28T08:04:28.100Z,6.88
2022-11-28T08:07:29.683Z,6.86
2022-11-28T08:10:31.128Z,6.94
2022-11-28T08:13:32.926Z,6.89
2022-11-28T08:16:34.693Z,6.96
2022-11-28T08:19:36.176Z,6.94
2022-11-28T08:22:37.612Z,6.92
2022-11-28T08:25:39.023Z,6.99
2022-11-28T08:28:40.996Z,7.11
2022-11-28T08:31:42.505Z,7.14
2022-11-28T08:34:44.104Z,7.15
2022-11-28T08:37:45.665Z,7.12
2022-11-28T08:40:47.089Z,7.27
2022-11-28T08:43:49.051Z,7.23
2022-11-28T08:46:50.536Z,7.22
2022-11-28T08:49:52.250Z,7.34
2022-11-28T08:52:53.742Z,7.30
2022-11-28T08:55:55.447Z,7.38
2022-11-28T08:58:56.912Z,7.45
2022-11-28T09:01:58.323Z,7.42
2022-11-28T09:04:59.736Z,7.29
2022-11-28T09:08:01.298Z,7.28
2022-11-28T09:11:02.793Z,7.33
2022-11-28T09:14:04.548Z,7.37
2022-11-28T09:17:06.035Z,7.44
2022-11-28T09:20:08.185Z,7.26
2022-11-28T09:23:10.400Z,7.36
2022-11-28T09:26:14.688Z,7.46
2022-11-28T09:29:16.096Z,7.43
2022-11-28T09:32:17.676Z,7.49
2022-11-28T09:35:19.121Z,7.53
2022-11-28T09:38:21.361Z,7.53
2022-11-28T09:41:28.723Z,7.55
2022-11-28T09:44:33.084Z,7.73
2022-11-28T09:47:36.809Z,7.51
2022-11-28T09:50:41.211Z,7.71
2022-11-28T09:54:03.660Z,7.79
2022-11-28T09:57:26.251Z,7.93
2022-11-28T10:00:43.896Z,7.89
2022-11-28T10:03:48.231Z,8.05
2022-11-28T10:07:05.216Z,8.04
2022-11-28T10:10:30.672Z,8.07
2022-11-28T10:14:07.725Z,8.16
2022-11-28T10:17:29.291Z,8.18
2022-11-28T10:20:34.345Z,8.23
2022-11-28T10:23:43.071Z,8.31
2022-11-28T10:26:48.786Z,8.32
2022-11-28T10:29:58.481Z,8.20
2022-11-28T10:33:08.684Z,8.23
2022-11-28T10:36:21.323Z,8.27
2022-11-28T10:39:25.815Z,8.36
2022-11-28T10:42:35.202Z,8.33
2022-11-28T10:45:56.050Z,8.30
2022-11-28T10:49:06.413Z,8.36
2022-11-28T10:52:07.983Z,8.38
2022-11-28T10:55:35.860Z,8.45
2022-11-28T10:58:48.074Z,8.54
2022-11-28T11:01:51.919Z,8.63
2022-11-28T11:04:54.004Z,8.66
2022-11-28T11:08:03.518Z,8.92
2022-11-28T11:11:23.920Z,9.05
2022-11-28T11:14:35.676Z,8.99
2022-11-28T11:17:39.688Z,9.25
2022-11-28T11:20:41.146Z,9.33
2022-11-28T11:23:44.523Z,9.32
2022-11-28T11:26:48.436Z,9.29
2022-11-28T11:29:51.864Z,9.31
2022-11-28T11:32:55.472Z,9.25
2022-11-28T11:35:56.936Z,9.26
2022-11-28T11:39:10.881Z,9.16
2022-11-28T11:42:21.446Z,9.23
2022-11-28T11:45:28.161Z,8.86
2022-11-28T11:48:41.950Z,9.15
2022-11-28T11:51:43.513Z,9.14
2022-11-28T11:55:02.588Z,9.25
2022-11-28T11:58:06.239Z,9.18
2022-11-28T12:01:10.482Z,9.28
2022-11-28T12:04:45.474Z,8.85
2022-11-28T12:07:50.602Z,9.40
2022-11-28T12:11:12.968Z,9.38
2022-11-28T12:14:27.621Z,9.58
2022-11-28T12:17:58.844Z,9.30
2022-11-28T12:21:11.742Z,9.43
2022-11-28T12:24:15.190Z,9.41
2022-11-28T12:27:43.350Z,9.47
2022-11-28T12:31:08.351Z,9.40
2022-11-28T12:34:47.690Z,9.36
2022-11-28T12:38:12.774Z,9.32
2022-11-28T12:41:49.255Z,9.26
2022-11-28T12:45:17.640Z,9.18
2022-11-28T12:48:58.508Z,9.22
2022-11-28T12:52:16.634Z,9.05
2022-11-28T12:55:35.319Z,9.24
2022-11-28T12:58:45.162Z,9.12
2022-11-28T13:02:11.338Z,9.27
2022-11-28T13:05:41.395Z,9.34
2022-11-28T13:08:56.840Z,9.30
2022-11-28T13:12:24.907Z,9.32
2022-11-28T13:15:44.556Z,9.21
2022-11-28T13:19:00.492Z,9.31
2022-11-28T13:22:20.356Z,9.40
2022-11-28T13:25:31.892Z,9.42
2022-11-28T13:28:33.230Z,9.53
2022-11-28T13:31:44.291Z,9.56
2022-11-28T13:34:47.084Z,9.58
2022-11-28T13:45:33.172Z,9.63
2022-11-28T13:52:17.665Z,9.65
2022-11-28T13:55:46.568Z,9.62
2022-11-28T13:58:57.110Z,9.69
2022-11-28T14:02:02.141Z,9.66
2022-11-28T14:05:06.477Z,9.56
2022-11-28T14:08:09.035Z,9.68
2022-11-28T14:11:27.925Z,9.60
2022-11-28T14:14:29.903Z,9.60
2022-11-28T14:17:50.531Z,9.42
2022-11-28T14:21:05.453Z,9.51
2022-11-28T14:24:19.962Z,9.50
2022-11-28T14:27:29.045Z,9.19
2022-11-28T14:30:37.175Z,9.45
2022-11-28T14:33:44.498Z,9.44
2022-11-28T14:37:06.324Z,9.36
2022-11-28T14:40:46.906Z,9.32
2022-11-28T14:44:44.286Z,9.47
2022-11-28T14:48:22.129Z,9.32
2022-11-28T14:51:45.963Z,9.45
2022-11-28T14:54:53.156Z,9.19
2022-11-28T14:57:59.738Z,9.42
2022-11-28T15:01:08.185Z,9.47
2022-11-28T15:04:48.324Z,9.47
2022-11-28T15:08:04.889Z,9.36
2022-11-28T15:11:19.776Z,9.41
2022-11-28T15:14:24.373Z,9.42
2022-11-28T15:17:32.557Z,9.37
2022-11-28T15:20:45.611Z,9.33
2022-11-28T15:23:48.017Z,9.36
2022-11-28T15:26:55.824Z,9.34
2022-11-28T15:30:00.970Z,9.38
2022-11-28T15:33:03.589Z,9.31
2022-11-28T15:36:22.037Z,9.25
2022-11-28T15:39:36.676Z,9.25
2022-11-28T15:42:38.828Z,9.23
2022-11-28T15:45:42.182Z,9.25
2022-11-28T15:48:52.381Z,9.28
2022-11-28T15:51:56.189Z,9.24
2022-11-28T15:54:57.944Z,9.11
2022-11-28T15:58:21.399Z,9.11
2022-11-28T16:01:28.225Z,9.14
2022-11-28T16:04:30.435Z,9.13
2022-11-28T16:07:33.096Z,9.16
2022-11-28T16:10:37.657Z,9.25
2022-11-28T16:13:40.090Z,9.08
2022-11-28T16:16:41.851Z,9.17
2022-11-28T16:19:44.278Z,9.14
2022-11-28T16:22:45.911Z,9.23
2022-11-28T16:26:00.934Z,9.29
2022-11-28T16:29:05.264Z,9.22
2022-11-28T16:32:22.970Z,9.21
2022-11-28T16:35:29.304Z,9.20
2022-11-28T16:38:33.030Z,9.28
2022-11-28T16:41:36.114Z,9.26
2022-11-28T16:44:37.721Z,9.28
2022-11-28T16:47:39.754Z,9.21
2022-11-28T16:50:59.886Z,9.25
2022-11-28T16:54:28.803Z,9.18
2022-11-28T16:57:46.375Z,9.16
2022-11-28T17:00:59.697Z,9.18
2022-11-28T17:04:01.853Z,9.16
2022-11-28T17:07:05.575Z,9.16
2022-11-28T17:10:07.488Z,9.19
2022-11-28T17:13:10.003Z,9.27
2022-11-28T17:16:20.062Z,9.20
2022-11-28T17:19:21.535Z,9.21
2022-11-28T17:22:37.456Z,9.22
2022-11-28T17:25:42.012Z,9.25
2022-11-28T17:28:43.598Z,9.20
2022-11-28T17:31:47.105Z,9.20
2022-11-28T17:34:48.689Z,9.18
2022-11-28T17:37:50.295Z,9.15
2022-11-28T17:40:51.686Z,8.98
2022-11-28T17:43:53.145Z,9.18
2022-11-28T17:46:56.497Z,8.76
2022-11-28T17:49:58.643Z,9.05
2022-11-28T17:53:00.053Z,9.11
2022-11-28T17:56:02.778Z,9.21
2022-11-28T17:59:04.560Z,9.22
2022-11-28T18:02:06.086Z,9.22
2022-11-28T18:05:07.993Z,9.22
2022-11-28T18:08:19.160Z,9.21
2022-11-28T18:11:23.341Z,9.25
2022-11-28T18:14:24.899Z,9.25
2022-11-28T18:17:26.318Z,9.25
2022-11-28T18:20:28.624Z,9.26
2022-11-28T18:23:30.018Z,9.26
2022-11-28T18:26:31.799Z,9.24
2022-11-28T18:29:34.256Z,9.28
2022-11-28T18:32:35.585Z,9.29
2022-11-28T18:35:37.695Z,9.11
2022-11-28T18:38:39.744Z,9.15
2022-11-28T18:41:42.483Z,9.10
2022-11-28T18:44:43.947Z,8.94
2022-11-28T18:47:45.487Z,9.14
2022-11-28T18:50:47.119Z,9.13
2022-11-28T18:53:50.189Z,9.07
2022-11-28T18:56:52.552Z,9.24
2022-11-28T18:59:55.522Z,9.26
2022-11-28T19:02:57.406Z,9.16
2022-11-28T19:05:59.387Z,9.22
2022-11-28T19:09:02.637Z,9.19
2022-11-28T19:12:04.668Z,9.12
2022-11-28T19:15:07.945Z,9.07
2022-11-28T19:18:09.731Z,9.15
2022-11-28T19:21:18.798Z,9.14
2022-11-28T19:24:20.411Z,9.15
2022-11-28T19:27:22.480Z,9.19
2022-11-28T19:30:23.867Z,9.24
2022-11-28T19:33:25.288Z,9.23
2022-11-28T19:36:26.970Z,9.27
2022-11-28T19:39:29.201Z,9.27
2022-11-28T19:42:30.818Z,9.22
2022-11-28T19:45:32.871Z,9.05
2022-11-28T19:48:36.551Z,9.10
2022-11-28T19:51:37.991Z,9.19
2022-11-28T19:54:40.012Z,9.15
2022-11-28T19:57:42.497Z,9.05
2022-11-28T20:00:44.304Z,9.09
2022-11-28T20:03:47.735Z,9.00
2022-11-28T20:06:49.388Z,9.12
2022-11-28T20:09:50.782Z,8.97
2022-11-28T20:12:54.070Z,9.12
2022-11-28T20:15:56.042Z,9.18
2022-11-28T20:19:00.313Z,9.25
2022-11-28T20:22:02.338Z,9.18
2022-11-28T20:25:06.735Z,9.24
2022-11-28T20:28:08.410Z,9.06
2022-11-28T20:31:23.570Z,9.00
2022-11-28T20:34:25.633Z,8.92
2022-11-28T20:37:28.048Z,8.84
2022-11-28T20:40:29.387Z,8.94
2022-11-28T20:43:32.560Z,8.86
2022-11-28T20:46:35.473Z,8.93
2022-11-28T20:49:37.767Z,9.03
2022-11-28T20:52:39.200Z,9.03
2022-11-28T20:55:40.736Z,8.98
2022-11-28T20:58:42.718Z,8.87
2022-11-28T21:01:44.486Z,8.95
2022-11-28T21:04:46.091Z,9.04
2022-11-28T21:07:47.549Z,8.89
2022-11-28T21:10:49.146Z,8.90
2022-11-28T21:13:50.714Z,8.75
2022-11-28T21:16:52.266Z,8.93
2022-11-28T21:19:53.801Z,9.04
2022-11-28T21:22:55.408Z,8.86
2022-11-28T21:25:56.774Z,8.86
2022-11-28T21:29:02.477Z,9.02
2022-11-28T21:32:03.912Z,8.97
2022-11-28T21:35:05.900Z,9.06
2022-11-28T21:38:08.044Z,8.89
2022-11-28T21:41:09.637Z,8.99
2022-11-28T21:44:11.096Z,8.88
2022-11-28T21:47:12.527Z,9.01
2022-11-28T21:50:14.252Z,9.00
2022-11-28T21:53:17.209Z,9.03
2022-11-28T21:56:19.070Z,9.01
2022-11-28T21:59:21.737Z,9.03
2022-11-28T22:02:30.455Z,8.89
2022-11-28T22:05:33.673Z,8.95
2022-11-28T22:08:35.772Z,8.98
2022-11-28T22:11:38.464Z,9.01
2022-11-28T22:14:39.861Z,8.87
2022-11-28T22:17:41.651Z,8.73
2022-11-28T22:20:45.798Z,8.94
2022-11-28T22:23:50.904Z,8.81
2022-11-28T22:26:53.296Z,8.90
2022-11-28T22:29:55.286Z,8.72
2022-11-28T22:32:56.878Z,8.74
2022-11-28T22:36:25.110Z,8.86
2022-11-28T22:39:27.878Z,8.81
2022-11-28T22:42:29.641Z,9.01
2022-11-28T22:45:32.336Z,8.84
2022-11-28T22:48:35.104Z,8.77
2022-11-28T22:51:37.440Z,8.70
2022-11-28T22:54:38.880Z,8.76
2022-11-28T22:57:40.407Z,8.68
2022-11-28T23:00:42.759Z,8.65
2022-11-28T23:03:46.194Z,8.60
2022-11-28T23:06:47.737Z,8.78
2022-11-28T23:09:49.485Z,8.79
2022-11-28T23:12:51.152Z,8.76
2022-11-28T23:15:53.102Z,8.74
2022-11-28T23:18:57.507Z,8.61
2022-11-28T23:21:58.927Z,8.64
2022-11-28T23:25:00.525Z,8.63
2022-11-28T23:28:02.026Z,8.77
2022-11-28T23:31:08.554Z,8.44
2022-11-28T23:34:10.795Z,8.72
2022-11-28T23:37:13.981Z,8.89
2022-11-28T23:40:15.483Z,8.97
2022-11-28T23:43:16.994Z,8.80
2022-11-28T23:46:19.776Z,8.57
2022-11-28T23:49:21.234Z,8.57
2022-11-28T23:52:22.739Z,8.64
2022-11-28T23:55:24.191Z,8.73
2022-11-28T23:58:25.583Z,8.59
